sensor_id;sensor_type;location;lat;lon;timestamp;pressure;altitude;pressure_sealevel;temperature;humidity
17054;BME280;8643;48.824;11.422;2024-03-02T00:01:39;95950.00;;;5.02;100.00
17054;BME280;8643;48.824;11.422;2024-03-02T00:04:08;95951.16;;;5.01;100.00
17054;BME280;8643;48.824;11.422;2024-03-02T00:06:37;95944.59;;;5.02;100.00
17054;BME280;8643;48.824;11.422;2024-03-02T00:09:09;95947.16;;;5.07;100.00
17054;BME280;8643;48.824;11.422;2024-03-02T00:11:38;95951.47;;;4.99;100.00
17054;BME280;8643;48.824;11.422;2024-03-02T00:14:07;95942.84;;;5.06;100.00
17054;BME280;8643;48.824;11.422;2024-03-02T00:16:36;95939.81;;;5.07;100.00
17054;BME280;8643;48.824;11.422;2024-03-02T00:19:08;95938.06;;;5.03;100.00
17054;BME280;8643;48.824;11.422;2024-03-02T00:21:37;95934.38;;;4.99;100.00
17054;BME280;8643;48.824;11.422;2024-03-02T00:24:18;95931.50;;;4.95;100.00
17054;BME280;8643;48.824;11.422;2024-03-02T00:26:48;95942.03;;;4.96;100.00
17054;BME280;8643;48.824;11.422;2024-03-02T00:29:17;95946.34;;;4.89;100.00
17054;BME280;8643;48.824;11.422;2024-03-02T00:31:48;95940.59;;;4.90;100.00
17054;BME280;8643;48.824;11.422;2024-03-02T00:34:18;95936.16;;;4.86;100.00
17054;BME280;8643;48.824;11.422;2024-03-02T00:36:47;95932.78;;;4.89;100.00
17054;BME280;8643;48.824;11.422;2024-03-02T00:39:16;95936.00;;;4.91;100.00
17054;BME280;8643;48.824;11.422;2024-03-02T00:41:46;95938.38;;;4.92;100.00
17054;BME280;8643;48.824;11.422;2024-03-02T00:44:15;95939.66;;;4.95;100.00
17054;BME280;8643;48.824;11.422;2024-03-02T00:46:44;95933.59;;;4.98;100.00
17054;BME280;8643;48.824;11.422;2024-03-02T00:49:21;95932.00;;;5.06;100.00
17054;BME280;8643;48.824;11.422;2024-03-02T00:51:51;95932.47;;;5.08;100.00
17054;BME280;8643;48.824;11.422;2024-03-02T00:54:22;95927.06;;;4.99;100.00
17054;BME280;8643;48.824;11.422;2024-03-02T00:56:52;95928.00;;;4.94;100.00
17054;BME280;8643;48.824;11.422;2024-03-02T00:59:23;95933.59;;;4.98;100.00
17054;BME280;8643;48.824;11.422;2024-03-02T01:01:52;95928.94;;;4.99;100.00
17054;BME280;8643;48.824;11.422;2024-03-02T01:04:22;95941.72;;;4.98;100.00
17054;BME280;8643;48.824;11.422;2024-03-02T01:06:51;95942.84;;;4.97;100.00
17054;BME280;8643;48.824;11.422;2024-03-02T01:09:19;95935.03;;;4.95;100.00
17054;BME280;8643;48.824;11.422;2024-03-02T01:11:48;95945.38;;;4.93;100.00
17054;BME280;8643;48.824;11.422;2024-03-02T01:14:17;95948.28;;;4.97;100.00
17054;BME280;8643;48.824;11.422;2024-03-02T01:16:45;95947.16;;;4.98;100.00
17054;BME280;8643;48.824;11.422;2024-03-02T01:19:13;95947.47;;;4.96;100.00
17054;BME280;8643;48.824;11.422;2024-03-02T01:21:44;95953.22;;;4.95;100.00
17054;BME280;8643;48.824;11.422;2024-03-02T01:24:12;95943.19;;;4.95;100.00
17054;BME280;8643;48.824;11.422;2024-03-02T01:26:41;95943.00;;;4.92;100.00
17054;BME280;8643;48.824;11.422;2024-03-02T01:29:10;95933.25;;;4.82;100.00
17054;BME280;8643;48.824;11.422;2024-03-02T01:31:38;95935.97;;;4.82;100.00
17054;BME280;8643;48.824;11.422;2024-03-02T01:34:09;95942.06;;;4.88;100.00
17054;BME280;8643;48.824;11.422;2024-03-02T01:36:37;95934.88;;;4.83;100.00
17054;BME280;8643;48.824;11.422;2024-03-02T01:39:07;95937.91;;;4.82;100.00
17054;BME280;8643;48.824;11.422;2024-03-02T01:41:36;95937.91;;;4.82;100.00
17054;BME280;8643;48.824;11.422;2024-03-02T01:44:05;95933.88;;;4.79;100.00
17054;BME280;8643;48.824;11.422;2024-03-02T01:46:34;95934.06;;;4.74;100.00
17054;BME280;8643;48.824;11.422;2024-03-02T01:49:03;95932.28;;;4.69;100.00
17054;BME280;8643;48.824;11.422;2024-03-02T01:51:32;95937.72;;;4.69;100.00
17054;BME280;8643;48.824;11.422;2024-03-02T01:54:00;95928.63;;;4.74;100.00
17054;BME280;8643;48.824;11.422;2024-03-02T01:56:30;95929.44;;;4.66;100.00
17054;BME280;8643;48.824;11.422;2024-03-02T01:58:59;95933.44;;;4.68;100.00
17054;BME280;8643;48.824;11.422;2024-03-02T02:01:28;95929.59;;;4.69;100.00
17054;BME280;8643;48.824;11.422;2024-03-02T02:03:57;95936.31;;;4.63;100.00
17054;BME280;8643;48.824;11.422;2024-03-02T02:06:26;95930.88;;;4.63;100.00
17054;BME280;8643;48.824;11.422;2024-03-02T02:08:55;95934.06;;;4.65;100.00
17054;BME280;8643;48.824;11.422;2024-03-02T02:11:25;95922.91;;;4.67;100.00
17054;BME280;8643;48.824;11.422;2024-03-02T02:13:55;95930.06;;;4.63;100.00
17054;BME280;8643;48.824;11.422;2024-03-02T02:16:23;95928.78;;;4.60;100.00
17054;BME280;8643;48.824;11.422;2024-03-02T02:18:52;95923.06;;;4.62;100.00
17054;BME280;8643;48.824;11.422;2024-03-02T02:21:24;95924.50;;;4.68;100.00
17054;BME280;8643;48.824;11.422;2024-03-02T02:23:54;95923.38;;;4.69;100.00
17054;BME280;8643;48.824;11.422;2024-03-02T02:26:22;95925.28;;;4.68;100.00
17054;BME280;8643;48.824;11.422;2024-03-02T02:28:51;95928.94;;;4.72;100.00
17054;BME280;8643;48.824;11.422;2024-03-02T02:31:19;95920.34;;;4.70;100.00
17054;BME280;8643;48.824;11.422;2024-03-02T02:33:48;95919.72;;;4.73;100.00
17054;BME280;8643;48.824;11.422;2024-03-02T02:36:17;95916.69;;;4.75;100.00
17054;BME280;8643;48.824;11.422;2024-03-02T02:38:49;95918.28;;;4.76;100.00
17054;BME280;8643;48.824;11.422;2024-03-02T02:41:19;95917.47;;;4.75;100.00
17054;BME280;8643;48.824;11.422;2024-03-02T02:43:47;95916.84;;;4.78;100.00
17054;BME280;8643;48.824;11.422;2024-03-02T02:46:16;95912.38;;;4.83;100.00
17054;BME280;8643;48.824;11.422;2024-03-02T02:48:44;95913.94;;;4.84;100.00
17054;BME280;8643;48.824;11.422;2024-03-02T02:51:13;95920.97;;;4.85;100.00
17054;BME280;8643;48.824;11.422;2024-03-02T02:53:41;95914.44;;;4.86;100.00
17054;BME280;8643;48.824;11.422;2024-03-02T02:56:11;95911.25;;;4.84;100.00
17054;BME280;8643;48.824;11.422;2024-03-02T02:58:40;95914.13;;;4.87;100.00
17054;BME280;8643;48.824;11.422;2024-03-02T03:01:10;95912.22;;;4.88;100.00
17054;BME280;8643;48.824;11.422;2024-03-02T03:03:38;95916.50;;;4.89;100.00
17054;BME280;8643;48.824;11.422;2024-03-02T03:06:07;95918.44;;;4.88;100.00
17054;BME280;8643;48.824;11.422;2024-03-02T03:08:35;95913.47;;;4.90;100.00
17054;BME280;8643;48.824;11.422;2024-03-02T03:11:04;95921.13;;;4.88;100.00
17054;BME280;8643;48.824;11.422;2024-03-02T03:13:35;95925.78;;;4.88;100.00
17054;BME280;8643;48.824;11.422;2024-03-02T03:16:04;95922.75;;;4.89;100.00
17054;BME280;8643;48.824;11.422;2024-03-02T03:18:32;95926.56;;;4.88;100.00
17054;BME280;8643;48.824;11.422;2024-03-02T03:21:01;95922.44;;;4.91;100.00
17054;BME280;8643;48.824;11.422;2024-03-02T03:23:30;95923.22;;;4.91;100.00
17054;BME280;8643;48.824;11.422;2024-03-02T03:25:58;95925.13;;;4.91;100.00
17054;BME280;8643;48.824;11.422;2024-03-02T03:28:27;95924.31;;;4.90;100.00
17054;BME280;8643;48.824;11.422;2024-03-02T03:30:57;95920.34;;;4.88;100.00
17054;BME280;8643;48.824;11.422;2024-03-02T03:33:26;95927.34;;;4.89;100.00
17054;BME280;8643;48.824;11.422;2024-03-02T03:35:55;95930.41;;;4.87;100.00
17054;BME280;8643;48.824;11.422;2024-03-02T03:38:23;95933.13;;;4.87;100.00
17054;BME280;8643;48.824;11.422;2024-03-02T03:40:52;95929.75;;;4.90;100.00
17054;BME280;8643;48.824;11.422;2024-03-02T03:43:20;95937.72;;;4.87;100.00
17054;BME280;8643;48.824;11.422;2024-03-02T03:45:49;95944.75;;;4.88;100.00
17054;BME280;8643;48.824;11.422;2024-03-02T03:48:19;95945.22;;;4.90;100.00
17054;BME280;8643;48.824;11.422;2024-03-02T03:50:47;95941.25;;;4.87;100.00
17054;BME280;8643;48.824;11.422;2024-03-02T03:53:16;95945.06;;;4.86;100.00
17054;BME280;8643;48.824;11.422;2024-03-02T03:55:44;95942.69;;;4.85;100.00
17054;BME280;8643;48.824;11.422;2024-03-02T03:58:14;95944.75;;;4.79;100.00
17054;BME280;8643;48.824;11.422;2024-03-02T04:00:46;95944.28;;;4.77;100.00
17054;BME280;8643;48.824;11.422;2024-03-02T04:03:15;95950.97;;;4.80;100.00
17054;BME280;8643;48.824;11.422;2024-03-02T04:05:45;95954.50;;;4.71;100.00
17054;BME280;8643;48.824;11.422;2024-03-02T04:08:13;95946.03;;;4.73;100.00
17054;BME280;8643;48.824;11.422;2024-03-02T04:10:42;95954.50;;;4.71;100.00
17054;BME280;8643;48.824;11.422;2024-03-02T04:13:10;95958.00;;;4.72;100.00
17054;BME280;8643;48.824;11.422;2024-03-02T04:15:38;95959.59;;;4.73;100.00
17054;BME280;8643;48.824;11.422;2024-03-02T04:18:07;95965.34;;;4.71;100.00
17054;BME280;8643;48.824;11.422;2024-03-02T04:20:36;95970.91;;;4.75;100.00
17054;BME280;8643;48.824;11.422;2024-03-02T04:23:06;95963.56;;;4.75;100.00
17054;BME280;8643;48.824;11.422;2024-03-02T04:25:35;95965.19;;;4.76;100.00
17054;BME280;8643;48.824;11.422;2024-03-02T04:28:03;95971.38;;;4.77;100.00
17054;BME280;8643;48.824;11.422;2024-03-02T04:30:32;95965.19;;;4.76;100.00
17054;BME280;8643;48.824;11.422;2024-03-02T04:33:00;95969.00;;;4.75;100.00
17054;BME280;8643;48.824;11.422;2024-03-02T04:35:29;95973.00;;;4.78;100.00
17054;BME280;8643;48.824;11.422;2024-03-02T04:37:58;95966.13;;;4.72;100.00
17054;BME280;8643;48.824;11.422;2024-03-02T04:40:28;95973.63;;;4.75;100.00
17054;BME280;8643;48.824;11.422;2024-03-02T04:42:56;95972.84;;;4.74;100.00
17054;BME280;8643;48.824;11.422;2024-03-02T04:45:26;95978.75;;;4.76;100.00
17054;BME280;8643;48.824;11.422;2024-03-02T04:47:55;95970.59;;;4.76;100.00
17054;BME280;8643;48.824;11.422;2024-03-02T04:50:23;95977.13;;;4.75;100.00
17054;BME280;8643;48.824;11.422;2024-03-02T04:52:51;95970.59;;;4.76;100.00
17054;BME280;8643;48.824;11.422;2024-03-02T04:55:20;95980.34;;;4.77;100.00
17054;BME280;8643;48.824;11.422;2024-03-02T04:58:13;95981.59;;;4.71;100.00
17054;BME280;8643;48.824;11.422;2024-03-02T05:00:42;95983.03;;;4.60;100.00
17054;BME280;8643;48.824;11.422;2024-03-02T05:03:14;95978.38;;;4.52;100.00
17054;BME280;8643;48.824;11.422;2024-03-02T05:05:42;95979.97;;;4.44;100.00
17054;BME280;8643;48.824;11.422;2024-03-02T05:08:11;95977.56;;;4.34;100.00
17054;BME280;8643;48.824;11.422;2024-03-02T05:10:40;95978.81;;;4.28;100.00
17054;BME280;8643;48.824;11.422;2024-03-02T05:13:09;95979.09;;;4.17;100.00
17054;BME280;8643;48.824;11.422;2024-03-02T05:15:39;95977.31;;;4.13;100.00
17054;BME280;8643;48.824;11.422;2024-03-02T05:18:06;95984.00;;;4.07;100.00
17054;BME280;8643;48.824;11.422;2024-03-02T05:20:35;95983.13;;;3.97;100.00
17054;BME280;8643;48.824;11.422;2024-03-02T05:23:03;95976.47;;;3.95;100.00
17054;BME280;8643;48.824;11.422;2024-03-02T05:25:32;95975.16;;;3.92;100.00
17054;BME280;8643;48.824;11.422;2024-03-02T05:28:03;95973.91;;;3.90;100.00
17054;BME280;8643;48.824;11.422;2024-03-02T05:30:31;95985.50;;;3.90;100.00
17054;BME280;8643;48.824;11.422;2024-03-02T05:33:01;95976.91;;;3.88;100.00
17054;BME280;8643;48.824;11.422;2024-03-02T05:35:29;95979.94;;;3.87;100.00
17054;BME280;8643;48.824;11.422;2024-03-02T05:37:58;95987.53;;;3.84;100.00
17054;BME280;8643;48.824;11.422;2024-03-02T05:40:27;95982.41;;;3.74;100.00
17054;BME280;8643;48.824;11.422;2024-03-02T05:42:55;95988.75;;;3.70;100.00
17054;BME280;8643;48.824;11.422;2024-03-02T05:45:24;95993.81;;;3.62;100.00
17054;BME280;8643;48.824;11.422;2024-03-02T05:47:52;95992.97;;;3.53;100.00
17054;BME280;8643;48.824;11.422;2024-03-02T05:50:22;96000.41;;;3.47;100.00
17054;BME280;8643;48.824;11.422;2024-03-02T05:52:50;95999.41;;;3.43;100.00
17054;BME280;8643;48.824;11.422;2024-03-02T05:55:19;95995.94;;;3.43;100.00
17054;BME280;8643;48.824;11.422;2024-03-02T05:57:47;95996.72;;;3.43;100.00
17054;BME280;8643;48.824;11.422;2024-03-02T06:00:29;96004.03;;;3.43;100.00
17054;BME280;8643;48.824;11.422;2024-03-02T06:02:58;96004.03;;;3.43;100.00
17054;BME280;8643;48.824;11.422;2024-03-02T06:05:28;96004.19;;;3.38;100.00
17054;BME280;8643;48.824;11.422;2024-03-02T06:07:57;96001.09;;;3.30;100.00
17054;BME280;8643;48.824;11.422;2024-03-02T06:10:25;95999.28;;;3.26;100.00
17054;BME280;8643;48.824;11.422;2024-03-02T06:12:54;95996.59;;;3.26;100.00
17054;BME280;8643;48.824;11.422;2024-03-02T06:15:22;95991.91;;;3.18;100.00
17054;BME280;8643;48.824;11.422;2024-03-02T06:17:51;95989.22;;;3.18;100.00
17054;BME280;8643;48.824;11.422;2024-03-02T06:20:20;95989.72;;;3.20;100.00
17054;BME280;8643;48.824;11.422;2024-03-02T06:22:50;95990.38;;;3.25;100.00
17054;BME280;8643;48.824;11.422;2024-03-02T06:25:18;95986.16;;;3.33;100.00
17054;BME280;8643;48.824;11.422;2024-03-02T06:27:47;95995.75;;;3.39;100.00
17054;BME280;8643;48.824;11.422;2024-03-02T06:30:16;95992.22;;;3.39;100.00
17054;BME280;8643;48.824;11.422;2024-03-02T06:32:44;95991.09;;;3.31;100.00
17054;BME280;8643;48.824;11.422;2024-03-02T06:35:13;95999.69;;;3.33;100.00
17054;BME280;8643;48.824;11.422;2024-03-02T06:37:42;95992.84;;;3.36;100.00
17054;BME280;8643;48.824;11.422;2024-03-02T06:40:12;95997.19;;;3.45;100.00
17054;BME280;8643;48.824;11.422;2024-03-02T06:42:41;95991.38;;;3.52;100.00
17054;BME280;8643;48.824;11.422;2024-03-02T06:45:10;95995.03;;;3.56;100.00
17054;BME280;8643;48.824;11.422;2024-03-02T06:47:38;95996.38;;;3.67;100.00
17054;BME280;8643;48.824;11.422;2024-03-02T06:50:08;95995.00;;;3.79;100.00
17054;BME280;8643;48.824;11.422;2024-03-02T06:52:37;95999.84;;;3.91;100.00
17054;BME280;8643;48.824;11.422;2024-03-02T06:55:06;95997.19;;;3.99;100.00
17054;BME280;8643;48.824;11.422;2024-03-02T06:57:36;96000.25;;;4.15;100.00
17054;BME280;8643;48.824;11.422;2024-03-02T07:00:06;95997.47;;;4.29;100.00
17054;BME280;8643;48.824;11.422;2024-03-02T07:02:36;95994.66;;;4.52;100.00
17054;BME280;8643;48.824;11.422;2024-03-02T07:05:05;95992.47;;;4.89;100.00
17054;BME280;8643;48.824;11.422;2024-03-02T07:07:34;95994.53;;;5.18;100.00
17054;BME280;8643;48.824;11.422;2024-03-02T07:10:04;95996.59;;;5.47;100.00
17054;BME280;8643;48.824;11.422;2024-03-02T07:12:36;95990.97;;;5.70;100.00
17054;BME280;8643;48.824;11.422;2024-03-02T07:15:06;95988.06;;;5.84;100.00
17054;BME280;8643;48.824;11.422;2024-03-02T07:17:57;95981.66;;;5.97;100.00
17054;BME280;8643;48.824;11.422;2024-03-02T07:20:25;95986.06;;;6.11;100.00
17054;BME280;8643;48.824;11.422;2024-03-02T07:22:54;95977.09;;;6.19;100.00
17054;BME280;8643;48.824;11.422;2024-03-02T07:25:22;95971.75;;;6.61;100.00
17054;BME280;8643;48.824;11.422;2024-03-02T07:27:56;95973.22;;;7.01;100.00
17054;BME280;8643;48.824;11.422;2024-03-02T07:30:24;95969.91;;;7.16;100.00
17054;BME280;8643;48.824;11.422;2024-03-02T07:32:53;95966.19;;;7.21;100.00
17054;BME280;8643;48.824;11.422;2024-03-02T07:35:22;95964.03;;;7.47;100.00
17054;BME280;8643;48.824;11.422;2024-03-02T07:37:54;95962.13;;;7.94;100.00
17054;BME280;8643;48.824;11.422;2024-03-02T07:40:23;95975.94;;;7.88;100.00
17054;BME280;8643;48.824;11.422;2024-03-02T07:42:51;95970.88;;;8.12;100.00
17054;BME280;8643;48.824;11.422;2024-03-02T07:45:22;95979.88;;;8.74;100.00
17054;BME280;8643;48.824;11.422;2024-03-02T07:47:51;95979.19;;;8.52;100.00
17054;BME280;8643;48.824;11.422;2024-03-02T07:50:19;95979.69;;;7.84;100.00
17054;BME280;8643;48.824;11.422;2024-03-02T07:52:48;95985.59;;;7.52;100.00
17054;BME280;8643;48.824;11.422;2024-03-02T07:55:16;95989.50;;;7.97;100.00
17054;BME280;8643;48.824;11.422;2024-03-02T07:57:45;95986.28;;;7.83;100.00
17054;BME280;8643;48.824;11.422;2024-03-02T08:00:14;95987.94;;;7.63;100.00
17054;BME280;8643;48.824;11.422;2024-03-02T08:02:44;95989.34;;;7.81;100.00
17054;BME280;8643;48.824;11.422;2024-03-02T08:05:13;95998.69;;;7.93;100.00
17054;BME280;8643;48.824;11.422;2024-03-02T08:07:44;95988.84;;;7.67;100.00
17054;BME280;8643;48.824;11.422;2024-03-02T08:10:13;95996.38;;;7.82;100.00
17054;BME280;8643;48.824;11.422;2024-03-02T08:12:42;96001.72;;;7.58;100.00
17054;BME280;8643;48.824;11.422;2024-03-02T08:15:11;96008.78;;;7.25;100.00
17054;BME280;8643;48.824;11.422;2024-03-02T08:17:40;96008.78;;;7.04;100.00
17054;BME280;8643;48.824;11.422;2024-03-02T08:20:17;96008.94;;;6.99;100.00
17054;BME280;8643;48.824;11.422;2024-03-02T08:22:46;96008.81;;;6.95;100.00
17054;BME280;8643;48.824;11.422;2024-03-02T08:25:15;96015.25;;;6.91;100.00
17054;BME280;8643;48.824;11.422;2024-03-02T08:27:44;96023.88;;;6.63;100.00
17054;BME280;8643;48.824;11.422;2024-03-02T08:30:13;96028.59;;;6.54;100.00
17054;BME280;8643;48.824;11.422;2024-03-02T08:32:42;96019.16;;;6.51;100.00
17054;BME280;8643;48.824;11.422;2024-03-02T08:35:12;96030.00;;;6.60;100.00
17054;BME280;8643;48.824;11.422;2024-03-02T08:37:43;96028.47;;;6.41;100.00
17054;BME280;8643;48.824;11.422;2024-03-02T08:40:12;96022.78;;;6.34;100.00
17054;BME280;8643;48.824;11.422;2024-03-02T08:42:45;96034.63;;;6.59;100.00
17054;BME280;8643;48.824;11.422;2024-03-02T08:45:14;96030.28;;;6.67;100.00
17054;BME280;8643;48.824;11.422;2024-03-02T08:47:44;96036.09;;;6.57;100.00
17054;BME280;8643;48.824;11.422;2024-03-02T08:50:13;96038.44;;;6.37;100.00
17054;BME280;8643;48.824;11.422;2024-03-02T08:52:43;96047.44;;;6.29;100.00
17054;BME280;8643;48.824;11.422;2024-03-02T08:55:12;96036.25;;;6.22;100.00
17054;BME280;8643;48.824;11.422;2024-03-02T08:57:40;96046.75;;;6.32;100.00
17054;BME280;8643;48.824;11.422;2024-03-02T09:00:11;96043.56;;;6.30;100.00
17054;BME280;8643;48.824;11.422;2024-03-02T09:02:40;96042.91;;;6.33;100.00
17054;BME280;8643;48.824;11.422;2024-03-02T09:05:08;96035.53;;;6.42;100.00
17054;BME280;8643;48.824;11.422;2024-03-02T09:07:37;96052.31;;;6.45;100.00
17054;BME280;8643;48.824;11.422;2024-03-02T09:10:09;96038.91;;;6.39;100.00
17054;BME280;8643;48.824;11.422;2024-03-02T09:12:38;96043.69;;;6.42;100.00
17054;BME280;8643;48.824;11.422;2024-03-02T09:15:07;96049.41;;;6.50;100.00
17054;BME280;8643;48.824;11.422;2024-03-02T09:17:36;96046.16;;;6.65;100.00
17054;BME280;8643;48.824;11.422;2024-03-02T09:20:06;96041.44;;;6.45;100.00
17054;BME280;8643;48.824;11.422;2024-03-02T09:22:35;96047.81;;;6.49;100.00
17054;BME280;8643;48.824;11.422;2024-03-02T09:25:04;96054.19;;;6.53;100.00
17054;BME280;8643;48.824;11.422;2024-03-02T09:27:38;96055.38;;;6.73;100.00
17054;BME280;8643;48.824;11.422;2024-03-02T09:30:09;96046.06;;;7.04;100.00
17054;BME280;8643;48.824;11.422;2024-03-02T09:32:38;96047.13;;;7.53;100.00
17054;BME280;8643;48.824;11.422;2024-03-02T09:35:07;96036.41;;;8.03;100.00
17054;BME280;8643;48.824;11.422;2024-03-02T09:37:36;96034.56;;;7.95;100.00
17054;BME280;8643;48.824;11.422;2024-03-02T09:40:06;96029.88;;;7.83;100.00
17054;BME280;8643;48.824;11.422;2024-03-02T09:42:37;96030.94;;;7.91;100.00
17054;BME280;8643;48.824;11.422;2024-03-02T09:45:06;96029.78;;;7.58;100.00
17054;BME280;8643;48.824;11.422;2024-03-02T09:47:35;96030.53;;;7.46;100.00
17054;BME280;8643;48.824;11.422;2024-03-02T09:50:05;96037.63;;;7.60;100.00
17054;BME280;8643;48.824;11.422;2024-03-02T09:52:36;96029.28;;;7.77;100.00
17054;BME280;8643;48.824;11.422;2024-03-02T09:55:07;96029.81;;;7.70;100.00
17054;BME280;8643;48.824;11.422;2024-03-02T09:57:37;96026.88;;;7.63;100.00
17054;BME280;8643;48.824;11.422;2024-03-02T10:00:09;96031.56;;;7.75;100.00
17054;BME280;8643;48.824;11.422;2024-03-02T10:02:43;96026.38;;;7.95;100.00
17054;BME280;8643;48.824;11.422;2024-03-02T10:05:11;96021.66;;;8.04;100.00
17054;BME280;8643;48.824;11.422;2024-03-02T10:07:40;96021.19;;;8.02;100.00
17054;BME280;8643;48.824;11.422;2024-03-02T10:10:16;96012.53;;;8.00;100.00
17054;BME280;8643;48.824;11.422;2024-03-02T10:12:46;96017.69;;;8.14;100.00
17054;BME280;8643;48.824;11.422;2024-03-02T10:15:24;96017.13;;;8.20;100.00
17054;BME280;8643;48.824;11.422;2024-03-02T10:17:52;96010.88;;;8.20;100.00
17054;BME280;8643;48.824;11.422;2024-03-02T10:20:22;96013.66;;;8.44;100.00
17054;BME280;8643;48.824;11.422;2024-03-02T10:22:51;96007.59;;;8.26;100.00
17054;BME280;8643;48.824;11.422;2024-03-02T10:25:30;95994.38;;;8.16;100.00
17054;BME280;8643;48.824;11.422;2024-03-02T10:28:18;96001.44;;;8.17;100.00
17054;BME280;8643;48.824;11.422;2024-03-02T10:30:48;96001.88;;;8.19;100.00
17054;BME280;8643;48.824;11.422;2024-03-02T10:33:18;95998.69;;;8.05;100.00
17054;BME280;8643;48.824;11.422;2024-03-02T10:35:49;96005.09;;;8.21;100.00
17054;BME280;8643;48.824;11.422;2024-03-02T10:38:18;95999.06;;;8.16;100.00
17054;BME280;8643;48.824;11.422;2024-03-02T10:40:48;96003.97;;;8.47;100.00
17054;BME280;8643;48.824;11.422;2024-03-02T10:43:20;95992.28;;;8.71;100.00
17054;BME280;8643;48.824;11.422;2024-03-02T10:45:49;95995.69;;;8.80;100.00
17054;BME280;8643;48.824;11.422;2024-03-02T10:48:19;95991.25;;;8.76;100.00
17054;BME280;8643;48.824;11.422;2024-03-02T10:50:48;95989.63;;;8.99;100.00
17054;BME280;8643;48.824;11.422;2024-03-02T10:53:18;95984.75;;;9.33;100.00
17054;BME280;8643;48.824;11.422;2024-03-02T10:55:57;95980.50;;;9.08;100.00
17054;BME280;8643;48.824;11.422;2024-03-02T10:58:32;95971.81;;;9.18;100.00
17054;BME280;8643;48.824;11.422;2024-03-02T11:01:03;95979.16;;;9.02;100.00
17054;BME280;8643;48.824;11.422;2024-03-02T11:03:36;95968.25;;;8.89;100.00
17054;BME280;8643;48.824;11.422;2024-03-02T11:06:08;95971.81;;;9.18;100.00
17054;BME280;8643;48.824;11.422;2024-03-02T11:08:40;95965.34;;;9.23;100.00
17054;BME280;8643;48.824;11.422;2024-03-02T11:11:17;95966.16;;;9.67;100.00
17054;BME280;8643;48.824;11.422;2024-03-02T11:13:51;95958.91;;;9.59;100.00
17054;BME280;8643;48.824;11.422;2024-03-02T11:16:32;95954.84;;;10.45;100.00
17054;BME280;8643;48.824;11.422;2024-03-02T11:19:05;95946.44;;;10.70;100.00
17054;BME280;8643;48.824;11.422;2024-03-02T11:21:36;95948.28;;;10.66;100.00
17054;BME280;8643;48.824;11.422;2024-03-02T11:24:28;95945.81;;;10.60;100.00
17054;BME280;8643;48.824;11.422;2024-03-02T11:27:06;95941.50;;;10.12;100.00
17054;BME280;8643;48.824;11.422;2024-03-02T11:29:45;95934.78;;;10.25;100.00
17054;BME280;8643;48.824;11.422;2024-03-02T11:32:20;95930.22;;;10.13;100.00
17054;BME280;8643;48.824;11.422;2024-03-02T11:34:51;95925.91;;;10.12;100.00
17054;BME280;8643;48.824;11.422;2024-03-02T11:37:20;95927.13;;;10.31;100.00
17054;BME280;8643;48.824;11.422;2024-03-02T11:39:51;95917.56;;;11.31;100.00
17054;BME280;8643;48.824;11.422;2024-03-02T11:42:19;95912.91;;;11.74;100.00
17054;BME280;8643;48.824;11.422;2024-03-02T11:44:50;95905.72;;;12.35;100.00
17054;BME280;8643;48.824;11.422;2024-03-02T11:47:18;95904.50;;;12.33;100.00
17054;BME280;8643;48.824;11.422;2024-03-02T11:49:51;95900.66;;;13.55;100.00
17054;BME280;8643;48.824;11.422;2024-03-02T11:52:20;95900.75;;;13.32;100.00
17054;BME280;8643;48.824;11.422;2024-03-02T11:54:49;95898.50;;;12.77;100.00
17054;BME280;8643;48.824;11.422;2024-03-02T11:57:20;95896.66;;;12.31;100.00
17054;BME280;8643;48.824;11.422;2024-03-02T11:59:51;95898.66;;;12.61;100.00
17054;BME280;8643;48.824;11.422;2024-03-02T12:02:21;95890.66;;;13.09;100.00
17054;BME280;8643;48.824;11.422;2024-03-02T12:04:50;95890.69;;;12.52;100.00
17054;BME280;8643;48.824;11.422;2024-03-02T12:07:20;95884.16;;;13.55;100.00
17054;BME280;8643;48.824;11.422;2024-03-02T12:09:59;95878.09;;;13.38;100.00
17054;BME280;8643;48.824;11.422;2024-03-02T12:12:29;95872.53;;;12.44;100.00
17054;BME280;8643;48.824;11.422;2024-03-02T12:14:59;95870.63;;;11.75;100.00
17054;BME280;8643;48.824;11.422;2024-03-02T12:17:29;95862.97;;;12.91;100.00
17054;BME280;8643;48.824;11.422;2024-03-02T12:19:59;95852.75;;;13.22;100.00
17054;BME280;8643;48.824;11.422;2024-03-02T12:22:31;95854.47;;;13.03;100.00
17054;BME280;8643;48.824;11.422;2024-03-02T12:24:59;95848.59;;;13.35;100.00
17054;BME280;8643;48.824;11.422;2024-03-02T12:27:28;95847.63;;;14.03;100.00
17054;BME280;8643;48.824;11.422;2024-03-02T12:29:58;95846.06;;;14.02;100.00
17054;BME280;8643;48.824;11.422;2024-03-02T12:32:27;95850.72;;;14.46;100.00
17054;BME280;8643;48.824;11.422;2024-03-02T12:34:56;95846.25;;;14.27;100.00
17054;BME280;8643;48.824;11.422;2024-03-02T12:37:24;95851.00;;;14.30;100.00
17054;BME280;8643;48.824;11.422;2024-03-02T12:39:54;95839.31;;;14.44;100.00
17054;BME280;8643;48.824;11.422;2024-03-02T12:42:24;95830.03;;;14.70;98.98
17054;BME280;8643;48.824;11.422;2024-03-02T12:44:53;95830.00;;;13.63;100.00
17054;BME280;8643;48.824;11.422;2024-03-02T12:47:24;95832.31;;;13.57;100.00
17054;BME280;8643;48.824;11.422;2024-03-02T12:49:52;95827.56;;;13.95;100.00
17054;BME280;8643;48.824;11.422;2024-03-02T12:52:21;95829.03;;;13.85;100.00
17054;BME280;8643;48.824;11.422;2024-03-02T12:54:50;95823.59;;;13.92;100.00
17054;BME280;8643;48.824;11.422;2024-03-02T12:57:20;95820.09;;;13.99;100.00
17054;BME280;8643;48.824;11.422;2024-03-02T12:59:48;95816.69;;;14.13;96.86
17054;BME280;8643;48.824;11.422;2024-03-02T13:02:18;95813.41;;;13.97;100.00
17054;BME280;8643;48.824;11.422;2024-03-02T13:04:54;95811.78;;;13.92;99.10
17054;BME280;8643;48.824;11.422;2024-03-02T13:07:23;95813.13;;;14.12;100.00
17054;BME280;8643;48.824;11.422;2024-03-02T13:09:52;95802.50;;;14.77;94.04
17054;BME280;8643;48.824;11.422;2024-03-02T13:12:24;95804.09;;;14.78;97.33
17054;BME280;8643;48.824;11.422;2024-03-02T13:14:53;95798.78;;;15.36;97.15